Time;durP1;ratioP1;P1;durP2;ratioP2;P2;SDS_P1;SDS_P2;PMS_P1;PMS_P2;Temp;Humidity;BMP_temperature;BMP_pressure;BME280_temperature;BME280_humidity;BME280_pressure;Samples;Min_cycle;Max_cycle;Signal;HPM_P1;HPM_P2
2022/01/09 00:01:17;;;;;;;2.88;1.13;;;5.70;99.90;;;4.07;100.00;97817.91;4991102;28;20621;-85
2022/01/09 00:03:46;;;;;;;2.78;0.95;;;5.80;99.90;;;4.11;100.00;97822.69;4996538;28;20034;-85
2022/01/09 00:06:14;;;;;;;3.10;0.90;;;5.80;99.90;;;4.13;100.00;97819.75;5002433;28;20135;-85
2022/01/09 00:08:43;;;;;;;2.08;0.93;;;5.70;99.90;;;4.08;100.00;97814.19;5008833;28;20073;-84
2022/01/09 00:11:11;;;;;;;1.60;0.88;;;5.70;99.90;;;4.10;100.00;97812.13;4996112;28;20050;-85
2022/01/09 00:13:38;;;;;;;2.20;0.90;;;5.70;99.90;;;4.13;100.00;97803.59;4988834;28;20364;-85
2022/01/09 00:16:06;;;;;;;2.90;1.00;;;5.80;99.90;;;4.06;100.00;97800.13;5000131;28;20046;-84
2022/01/09 00:18:33;;;;;;;1.92;0.80;;;5.80;99.90;;;4.06;100.00;97800.13;5009194;28;20117;-85
2022/01/09 00:21:05;;;;;;;1.60;0.80;;;5.70;99.90;;;4.09;100.00;97799.69;4998754;28;20077;-84
2022/01/09 00:23:34;;;;;;;1.98;0.90;;;5.70;99.90;;;4.12;100.00;97799.28;4989420;28;20049;-84
2022/01/09 00:26:01;;;;;;;1.92;0.80;;;5.80;99.90;;;4.09;100.00;97791.59;4991865;28;20042;-84
2022/01/09 00:28:28;;;;;;;2.05;1.00;;;5.70;99.90;;;4.11;100.00;97792.22;4991494;28;20046;-84
2022/01/09 00:30:56;;;;;;;2.05;0.90;;;5.80;99.90;;;4.07;100.00;97793.69;4991048;28;20161;-85
2022/01/09 00:33:23;;;;;;;2.00;0.90;;;5.80;99.90;;;4.04;100.00;97788.75;5007241;28;20136;-85
2022/01/09 00:35:50;;;;;;;1.90;0.90;;;5.80;99.90;;;4.05;100.00;97788.50;4989467;28;20048;-85
2022/01/09 00:38:19;;;;;;;1.90;0.93;;;5.80;99.90;;;4.09;100.00;97783.53;5003230;28;20049;-85
2022/01/09 00:40:46;;;;;;;1.88;0.90;;;5.80;99.90;;;4.11;100.00;97781.47;5007528;28;20056;-85
2022/01/09 00:43:14;;;;;;;4.18;1.00;;;5.80;99.90;;;4.17;100.00;97774.41;5006897;28;20530;-85
2022/01/09 00:45:43;;;;;;;1.85;0.88;;;5.80;99.90;;;4.21;100.00;97781.88;5008898;28;20050;-85
2022/01/09 00:48:11;;;;;;;1.75;0.90;;;5.80;99.90;;;4.16;100.00;97775.47;5004211;28;20586;-85
2022/01/09 00:50:40;;;;;;;2.00;0.90;;;5.80;99.90;;;4.16;100.00;97778.97;5025812;28;20045;-84
2022/01/09 00:53:08;;;;;;;2.15;0.93;;;5.80;99.90;;;4.16;100.00;97781.66;5027532;28;20049;-85
2022/01/09 00:55:36;;;;;;;1.88;0.90;;;5.80;99.90;;;4.18;100.00;97789.53;5015809;28;20046;-85
2022/01/09 00:58:03;;;;;;;2.35;1.05;;;5.80;99.90;;;4.20;100.00;97780.19;5008364;28;20132;-85
2022/01/09 01:00:31;;;;;;;1.65;0.80;;;5.80;99.90;;;4.21;100.00;97775.66;4998232;28;20415;-85
2022/01/09 01:02:58;;;;;;;2.17;0.90;;;5.80;99.90;;;4.23;100.00;97773.59;4988239;28;20050;-84
2022/01/09 01:05:26;;;;;;;2.28;1.00;;;5.80;99.90;;;4.18;100.00;97776.91;4971501;28;20600;-85
2022/01/09 01:07:53;;;;;;;1.65;0.80;;;5.90;99.90;;;4.19;100.00;97773.19;4988688;28;20078;-85
2022/01/09 01:10:20;;;;;;;1.90;0.80;;;5.90;99.90;;;4.21;100.00;97775.66;4988741;28;20052;-85
2022/01/09 01:12:49;;;;;;;1.92;0.90;;;5.90;99.90;;;4.19;100.00;97766.94;4987799;28;20081;-85
2022/01/09 01:15:17;;;;;;;2.25;0.80;;;5.90;99.90;;;4.22;100.00;97767.34;4995165;28;20111;-85
2022/01/09 01:17:45;;;;;;;2.03;0.88;;;5.90;99.90;;;4.23;100.00;97766.31;5008293;28;20073;-85
2022/01/09 01:20:13;;;;;;;2.83;0.77;;;5.90;99.90;;;4.25;100.00;97761.56;5002689;28;20114;-85
2022/01/09 01:22:41;;;;;;;2.88;0.85;;;5.90;99.90;;;4.34;100.00;97769.38;4970296;28;20157;-84
2022/01/09 01:25:10;;;;;;;4.13;0.90;;;5.90;99.90;;;4.23;100.00;97758.25;4974498;28;20058;-85
2022/01/09 01:27:37;;;;;;;2.60;0.90;;;5.90;99.90;;;4.26;100.00;97760.50;4990399;28;20768;-85
2022/01/09 01:30:08;;;;;;;1.67;0.70;;;5.90;99.90;;;4.28;100.00;97768.38;5004661;28;20121;-85
2022/01/09 01:32:36;;;;;;;1.63;0.80;;;5.90;99.90;;;4.27;100.00;97759.47;4970297;28;20057;-85
2022/01/09 01:35:03;;;;;;;1.50;0.70;;;5.90;99.90;;;4.28;100.00;97771.91;4973439;28;20098;-85
2022/01/09 01:37:30;;;;;;;3.17;0.80;;;5.90;99.90;;;4.26;100.00;97773.13;5008116;28;20149;-84
2022/01/09 01:39:58;;;;;;;1.80;0.77;;;6.00;99.90;;;4.23;100.00;97777.09;4988506;28;20070;-85
2022/01/09 01:42:25;;;;;;;1.77;0.70;;;6.00;99.90;;;4.19;100.00;97783.94;4970335;28;20582;-84
2022/01/09 01:44:53;;;;;;;2.00;0.80;;;6.00;99.90;;;4.21;100.00;97786.44;4987037;28;20046;-85
2022/01/09 01:47:22;;;;;;;1.35;0.55;;;6.00;99.90;;;4.18;100.00;97786.84;5008205;28;20592;-85
2022/01/09 01:49:50;;;;;;;1.88;0.88;;;6.00;99.90;;;4.23;100.00;97785.16;4990230;28;20046;-85
2022/01/09 01:52:26;;;;;;;2.30;0.88;;;6.20;99.90;;;4.26;100.00;97800.88;4989118;28;20046;-85
2022/01/09 01:54:54;;;;;;;2.35;0.85;;;6.00;99.90;;;4.28;100.00;97806.91;5007833;28;20495;-85
2022/01/09 01:57:21;;;;;;;2.53;0.90;;;6.00;99.90;;;4.31;100.00;97801.09;5002737;28;20078;-85
2022/01/09 01:59:49;;;;;;;3.15;1.00;;;6.10;99.90;;;4.35;100.00;97806.88;4986886;28;20048;-85
2022/01/09 02:02:16;;;;;;;4.03;1.08;;;6.00;99.90;;;4.37;100.00;97798.59;5005322;28;20081;-85
2022/01/09 02:04:45;;;;;;;2.72;1.13;;;6.10;99.90;;;4.39;100.00;97809.97;4990283;28;20042;-85
2022/01/09 02:07:12;;;;;;;3.80;0.90;;;6.00;99.90;;;4.46;100.00;97813.47;4988328;28;20078;-85
2022/01/09 02:09:39;;;;;;;2.33;0.90;;;6.10;99.90;;;4.42;100.00;97814.94;4970018;28;20153;-85
2022/01/09 02:12:08;;;;;;;2.30;1.00;;;6.10;99.90;;;4.45;100.00;97815.31;5002515;28;20517;-85
2022/01/09 02:14:37;;;;;;;2.10;1.00;;;6.10;99.90;;;4.43;100.00;97817.41;4990286;28;20585;-85
2022/01/09 02:17:05;;;;;;;2.97;0.90;;;6.10;99.90;;;4.44;100.00;97826.34;4989821;28;20233;-85
2022/01/09 02:19:35;;;;;;;2.28;0.90;;;6.10;99.90;;;4.44;100.00;97826.34;4989985;28;20145;-85
2022/01/09 02:22:07;;;;;;;3.17;0.80;;;6.10;99.90;;;4.39;100.00;97842.28;4975482;28;20105;-85
2022/01/09 02:24:34;;;;;;;2.30;0.93;;;6.10;99.90;;;4.40;100.00;97852.84;4986062;28;20141;-85
2022/01/09 02:27:06;;;;;;;2.97;0.95;;;6.10;99.90;;;4.34;100.00;97851.00;4987091;28;20053;-85
2022/01/09 02:29:33;;;;;;;3.17;1.00;;;6.10;99.90;;;4.35;100.00;97862.59;4986860;28;20051;-85
2022/01/09 02:32:00;;;;;;;2.42;1.20;;;6.10;99.90;;;4.27;100.00;97875.22;4992132;28;20540;-85
2022/01/09 02:34:28;;;;;;;3.30;1.30;;;6.10;99.90;;;4.30;100.00;97877.53;5006978;28;20053;-85
2022/01/09 02:36:55;;;;;;;2.20;1.20;;;6.20;99.90;;;4.28;100.00;97884.97;4987902;28;20144;-85
2022/01/09 02:39:23;;;;;;;2.90;1.25;;;6.20;99.90;;;4.34;100.00;97893.25;4991524;28;20125;-85
2022/01/09 02:41:51;;;;;;;4.80;1.55;;;6.20;99.90;;;4.33;100.00;97896.97;5009335;28;20463;-85
2022/01/09 02:44:18;;;;;;;3.78;1.90;;;6.20;99.90;;;4.23;100.00;97902.78;5011244;28;20498;-85
2022/01/09 02:46:56;;;;;;;4.57;2.40;;;6.20;99.90;;;4.20;100.00;97904.03;4997752;28;20038;-85
2022/01/09 02:49:25;;;;;;;4.15;2.00;;;6.20;99.90;;;4.24;100.00;97916.03;5009365;28;20503;-85
2022/01/09 02:51:53;;;;;;;4.25;2.10;;;6.20;99.90;;;4.30;100.00;97928.66;4998469;28;20125;-85
2022/01/09 02:57:07;;;;;;;5.82;2.60;;;6.20;99.90;;;4.22;100.00;97938.81;4999604;28;20144;-85
2022/01/09 02:59:34;;;;;;;5.90;2.70;;;6.20;99.90;;;4.25;100.00;97943.78;4992873;28;20088;-84
2022/01/09 03:02:01;;;;;;;6.15;2.95;;;6.20;99.90;;;4.27;100.00;97947.09;5000325;28;20122;-85
2022/01/09 03:04:29;;;;;;;5.90;3.35;;;6.20;99.90;;;4.30;100.00;97955.59;4973579;28;20542;-85
2022/01/09 03:06:56;;;;;;;5.50;3.28;;;6.20;99.90;;;4.28;100.00;97954.13;4998978;28;20136;-85
2022/01/09 03:09:23;;;;;;;6.50;4.40;;;6.20;99.90;;;4.30;100.00;97963.69;5010091;28;20141;-85
2022/01/09 03:11:50;;;;;;;6.85;4.05;;;6.20;99.90;;;4.33;100.00;97966.97;5002900;28;20070;-85
2022/01/09 03:14:19;;;;;;;7.60;3.88;;;6.20;99.90;;;4.33;100.00;97966.97;4989602;28;20049;-85
2022/01/09 03:16:46;;;;;;;6.55;3.83;;;6.20;99.90;;;4.36;100.00;97977.31;4994987;28;20054;-85
2022/01/09 03:19:14;;;;;;;8.73;3.50;;;6.20;99.90;;;4.40;100.00;97986.63;5010446;28;20140;-86
2022/01/09 03:21:41;;;;;;;4.93;2.60;;;6.20;99.90;;;4.41;100.00;98004.47;4991318;28;20133;-85
2022/01/09 03:24:08;;;;;;;5.80;2.25;;;6.20;99.90;;;4.47;100.00;98017.09;5009993;28;20582;-85
2022/01/09 03:26:35;;;;;;;5.65;1.92;;;6.20;99.90;;;4.47;100.00;98006.31;5009695;28;20040;-84
2022/01/09 03:29:03;;;;;;;5.13;1.63;;;6.30;99.90;;;4.50;100.00;98035.53;4991864;28;20081;-85
2022/01/09 03:31:32;;;;;;;4.72;1.50;;;6.20;99.90;;;4.49;100.00;98036.56;5007442;28;20096;-85
2022/01/09 03:33:59;;;;;;;4.88;1.27;;;6.30;99.90;;;4.45;100.00;98041.53;4990655;28;20132;-85
2022/01/09 03:36:26;;;;;;;6.88;1.60;;;6.30;99.90;;;4.53;100.00;98045.06;4991170;28;20070;-85
2022/01/09 03:38:54;;;;;;;6.82;1.20;;;6.30;99.90;;;4.54;100.00;98052.94;5009574;28;20084;-84
2022/01/09 03:41:21;;;;;;;6.95;1.10;;;6.30;99.90;;;4.46;100.00;98064.75;5009218;28;20038;-85
2022/01/09 03:43:48;;;;;;;5.63;1.15;;;6.30;99.90;;;4.48;100.00;98064.53;5009674;28;20048;-85
2022/01/09 03:46:16;;;;;;;6.85;1.40;;;6.30;99.90;;;4.45;100.00;98062.25;5009878;28;20042;-85
2022/01/09 03:48:44;;;;;;;6.53;1.45;;;6.20;99.90;;;4.46;100.00;98082.78;5007762;28;20124;-85
2022/01/09 03:51:12;;;;;;;10.13;2.35;;;6.30;99.90;;;4.48;100.00;98083.41;5009191;28;20141;-85
2022/01/09 03:53:40;;;;;;;7.22;1.70;;;6.30;99.90;;;4.52;100.00;98081.13;5008974;28;20391;-85
2022/01/09 03:56:07;;;;;;;8.68;2.17;;;6.30;99.90;;;4.47;100.00;98093.34;4991962;28;20061;-85
2022/01/09 03:58:36;;;;;;;12.45;1.70;;;6.30;99.90;;;4.50;100.00;98097.50;4993311;28;20126;-84
2022/01/09 04:01:06;;;;;;;10.68;1.70;;;6.30;99.90;;;4.51;100.00;98093.75;4989450;28;20388;-84
2022/01/09 04:03:34;;;;;;;9.88;1.90;;;6.30;99.90;;;4.52;100.00;98106.19;5004945;28;20045;-85
2022/01/09 04:06:04;;;;;;;14.88;1.88;;;6.30;99.90;;;4.53;100.00;98126.69;5009648;28;20052;-85
2022/01/09 04:08:33;;;;;;;10.73;2.38;;;6.40;99.90;;;4.56;100.00;98120.91;4990476;28;20494;-85
2022/01/09 04:11:03;;;;;;;13.45;2.15;;;6.30;99.90;;;4.61;100.00;98126.50;4975087;28;20480;-85
2022/01/09 04:13:33;;;;;;;10.35;1.92;;;6.40;99.90;;;4.57;100.00;98125.25;4989933;28;20034;-85
2022/01/09 04:16:00;;;;;;;9.30;1.70;;;6.40;99.90;;;4.53;100.00;98140.16;4990295;28;20121;-85
2022/01/09 04:18:28;;;;;;;10.55;2.00;;;6.40;99.90;;;4.57;100.00;98148.66;4972050;28;20105;-85
2022/01/09 04:20:56;;;;;;;8.13;1.63;;;6.40;99.90;;;4.49;100.00;98150.53;4972197;28;20054;-85
2022/01/09 04:23:25;;;;;;;9.75;1.90;;;6.40;99.90;;;4.50;100.00;98162.13;4988861;28;20181;-85
2022/01/09 04:25:53;;;;;;;10.65;2.58;;;6.40;99.90;;;4.53;100.00;98167.09;4989867;28;20066;-85
2022/01/09 04:28:20;;;;;;;19.33;4.00;;;6.40;99.90;;;4.50;100.00;98172.91;4989494;28;20054;-85
2022/01/09 04:30:48;;;;;;;24.98;5.78;;;6.40;99.90;;;4.57;100.00;98178.28;4973961;28;20823;-85
2022/01/09 04:33:15;;;;;;;31.00;5.82;;;6.40;99.90;;;4.66;100.00;98175.22;4988200;28;20129;-85
2022/01/09 04:35:44;;;;;;;34.35;6.15;;;6.50;99.90;;;4.73;100.00;98183.31;4997590;28;20046;-85
2022/01/09 04:38:12;;;;;;;26.00;5.38;;;6.50;99.90;;;4.76;100.00;98190.13;5008166;28;20052;-85
2022/01/09 04:40:41;;;;;;;27.33;5.45;;;6.50;99.90;;;4.78;100.00;98198.84;5006841;28;20096;-85
2022/01/09 04:43:10;;;;;;;32.33;6.18;;;6.50;99.90;;;4.83;100.00;98210.66;5008187;28;20141;-85
2022/01/09 04:45:38;;;;;;;34.17;5.90;;;6.50;99.90;;;4.89;100.00;98219.81;5008272;28;20495;-85
2022/01/09 04:48:06;;;;;;;37.78;6.25;;;6.60;99.90;;;4.90;100.00;98232.25;4990740;28;20046;-84
2022/01/09 04:50:36;;;;;;;35.05;6.20;;;6.60;99.90;;;4.93;100.00;98233.69;4989802;28;20096;-85
2022/01/09 04:53:08;;;;;;;30.40;5.78;;;6.60;99.90;;;4.96;100.00;98230.59;5007456;28;20049;-85
2022/01/09 04:55:38;;;;;;;39.10;6.90;;;6.60;99.90;;;4.97;100.00;98249.28;5008559;28;20041;-85
2022/01/09 04:58:08;;;;;;;30.35;6.70;;;6.70;99.90;;;4.98;100.00;98247.41;5007896;28;20136;-85
2022/01/09 05:00:36;;;;;;;31.08;5.95;;;6.70;99.90;;;5.00;100.00;98248.03;4990642;28;20088;-85
2022/01/09 05:03:03;;;;;;;28.27;5.68;;;6.70;99.90;;;5.01;100.00;98261.31;4989468;28;20061;-85
2022/01/09 05:05:31;;;;;;;37.85;6.55;;;6.70;99.90;;;5.01;100.00;98266.69;5008308;28;20147;-85
2022/01/09 05:07:59;;;;;;;34.35;5.70;;;6.70;99.90;;;4.99;100.00;98276.84;5007385;28;20118;-85
2022/01/09 05:10:27;;;;;;;34.22;5.28;;;6.70;99.90;;;5.00;100.00;98286.59;5008391;28;20052;-86
2022/01/09 05:12:54;;;;;;;36.17;5.43;;;6.70;99.90;;;5.00;100.00;98291.97;5006035;28;20046;-85
2022/01/09 05:15:23;;;;;;;35.97;5.75;;;6.80;99.90;;;5.00;100.00;98305.47;4988834;28;20121;-86
2022/01/09 05:17:53;;;;;;;27.85;5.35;;;6.80;99.90;;;5.00;100.00;98318.94;4989258;28;20046;-85
2022/01/09 05:20:20;;;;;;;28.98;6.03;;;6.80;99.90;;;5.00;100.00;98316.25;5008350;28;20042;-85
2022/01/09 05:22:48;;;;;;;25.85;5.15;;;6.80;99.90;;;4.98;100.00;98329.09;5007263;28;20125;-86
2022/01/09 05:25:15;;;;;;;30.92;5.88;;;6.80;99.90;;;5.01;100.00;98344.88;5007907;28;20128;-86
2022/01/09 05:27:43;;;;;;;28.83;5.68;;;6.80;99.90;;;4.98;100.00;98347.97;5008182;28;20142;-85
2022/01/09 05:30:11;;;;;;;35.60;5.38;;;6.80;99.90;;;4.98;100.00;98347.97;4989658;28;20121;-85
2022/01/09 05:32:40;;;;;;;30.52;5.25;;;6.80;99.90;;;5.01;100.00;98352.97;4986408;28;20085;-85
2022/01/09 05:35:08;;;;;;;41.47;6.28;;;6.80;99.90;;;5.02;100.00;98365.38;5005847;28;20061;-85
2022/01/09 05:37:35;;;;;;;31.52;5.97;;;6.80;99.90;;;5.00;100.00;98359.38;4990322;28;20045;-85
2022/01/09 05:40:03;;;;;;;36.45;6.13;;;6.80;99.90;;;5.01;100.00;98355.66;4991304;28;20560;-85
2022/01/09 05:42:30;;;;;;;35.17;5.82;;;6.80;99.90;;;5.04;100.00;98363.31;4987788;28;20123;-85
2022/01/09 05:44:58;;;;;;;27.88;5.50;;;6.80;99.90;;;5.02;100.00;98369.97;5003574;28;20768;-85
2022/01/09 05:47:25;;;;;;;29.35;4.88;;;6.80;99.90;;;5.01;100.00;98379.91;5008226;28;20050;-85
2022/01/09 05:49:53;;;;;;;31.80;5.50;;;6.80;99.90;;;5.02;100.00;98380.72;4994045;28;20073;-84
2022/01/09 05:52:21;;;;;;;34.42;5.25;;;6.80;99.90;;;5.00;100.00;98396.28;4987742;28;20050;-85
2022/01/09 05:54:48;;;;;;;28.27;4.57;;;6.80;99.90;;;4.99;100.00;98392.75;5000482;28;20049;-85
2022/01/09 05:57:15;;;;;;;38.13;5.13;;;6.80;99.90;;;4.97;100.00;98402.91;5007990;28;20046;-85
2022/01/09 05:59:43;;;;;;;28.25;5.82;;;6.80;99.90;;;4.92;100.00;98415.34;4996129;28;20046;-85
2022/01/09 06:02:10;;;;;;;33.17;5.90;;;6.80;99.90;;;4.85;100.00;98417.97;4987617;28;20129;-85
2022/01/09 06:04:37;;;;;;;29.40;5.32;;;6.80;99.90;;;4.85;100.00;98426.06;4998452;28;20145;-85
2022/01/09 06:07:06;;;;;;;29.45;5.68;;;6.80;99.90;;;4.92;100.00;98444.97;5007997;28;20570;-85
2022/01/09 06:09:33;;;;;;;33.05;5.80;;;6.80;99.90;;;4.90;100.00;98440.59;4998137;28;20129;-84
2022/01/09 06:12:00;;;;;;;23.45;5.25;;;6.80;99.90;;;4.89;100.00;98446.19;4991135;28;20060;-85
2022/01/09 06:14:28;;;;;;;21.27;5.03;;;6.80;99.90;;;4.91;100.00;98460.28;4993194;28;20046;-85
2022/01/09 06:16:55;;;;;;;31.13;5.15;;;6.80;99.90;;;4.92;100.00;98451.19;4974321;28;20462;-85
2022/01/09 06:19:22;;;;;;;27.98;5.53;;;6.70;99.90;;;4.97;100.00;98455.97;4998225;28;20184;-85
2022/01/09 06:21:49;;;;;;;31.80;5.63;;;6.70;99.90;;;4.93;100.00;98466.34;5010727;28;20133;-85
2022/01/09 06:24:18;;;;;;;26.58;5.45;;;6.70;99.90;;;4.89;100.00;98473.13;5005617;28;20064;-85
2022/01/09 06:26:45;;;;;;;30.08;4.57;;;6.70;99.90;;;4.82;100.00;98477.69;4992143;28;20097;-85
2022/01/09 06:29:13;;;;;;;26.00;4.75;;;6.70;99.90;;;4.82;100.00;98475.00;4995562;28;20050;-86
2022/01/09 06:31:40;;;;;;;23.10;4.85;;;6.70;99.90;;;4.74;100.00;98485.91;5010515;28;20050;-85
2022/01/09 06:34:07;;;;;;;24.75;4.85;;;6.70;99.90;;;4.73;100.00;98495.03;5008614;28;20090;-85
2022/01/09 06:36:34;;;;;;;28.55;5.07;;;6.70;99.90;;;4.71;100.00;98503.31;5011213;28;20042;-85
2022/01/09 06:39:02;;;;;;;24.30;4.97;;;6.70;99.90;;;4.76;100.00;98500.00;5007995;28;20168;-86
2022/01/09 06:41:31;;;;;;;27.20;4.63;;;6.70;99.90;;;4.71;100.00;98508.69;5009091;28;20100;-85
2022/01/09 06:43:58;;;;;;;30.23;5.07;;;6.70;99.90;;;4.70;100.00;98518.66;4991253;28;20057;-85
2022/01/09 06:46:26;;;;;;;18.98;4.10;;;6.70;99.90;;;4.73;100.00;98521.97;5010850;28;20048;-85
2022/01/09 06:48:53;;;;;;;29.75;4.95;;;6.70;99.90;;;4.74;100.00;98531.72;5010267;28;20080;-85
2022/01/09 06:51:20;;;;;;;26.42;4.35;;;6.70;99.90;;;4.73;100.00;98540.84;5010098;28;20466;-85
2022/01/09 06:53:48;;;;;;;19.00;4.13;;;6.70;99.90;;;4.68;100.00;98542.25;4994246;28;20074;-85
2022/01/09 06:56:15;;;;;;;27.35;4.20;;;6.70;99.90;;;4.62;100.00;98559.19;4991174;28;20050;-85
2022/01/09 06:58:44;;;;;;;24.88;4.20;;;6.70;99.90;;;4.62;100.00;98556.50;5005455;28;20590;-85
2022/01/09 07:01:11;;;;;;;24.17;4.05;;;6.60;99.90;;;4.64;100.00;98556.31;5009987;28;20125;-85
2022/01/09 07:03:38;;;;;;;24.05;4.30;;;6.60;99.90;;;4.65;100.00;98569.59;4996407;28;20129;-85
2022/01/09 07:06:05;;;;;;;23.08;3.40;;;6.60;99.90;;;4.63;100.00;98570.81;4991095;28;20061;-85
2022/01/09 07:08:33;;;;;;;22.27;5.30;;;6.60;99.90;;;4.65;100.00;98569.59;5002848;28;20052;-85
2022/01/09 07:11:01;;;;;;;20.88;5.78;;;6.60;99.90;;;4.62;100.00;98578.03;5009647;28;20046;-85
2022/01/09 07:13:28;;;;;;;25.15;5.90;;;6.60;99.90;;;4.55;100.00;98585.25;4998993;28;20214;-86
2022/01/09 07:15:57;;;;;;;26.20;5.53;;;6.60;99.90;;;4.58;100.00;98595.63;4991001;28;20608;-85
2022/01/09 07:18:25;;;;;;;20.23;4.82;;;6.60;99.90;;;4.61;100.00;98597.13;5001001;28;20066;-85
2022/01/09 07:20:53;;;;;;;21.35;3.72;;;6.50;99.90;;;4.65;100.00;98607.31;4992669;28;20146;-85
2022/01/09 07:23:21;;;;;;;20.00;3.90;;;6.50;99.90;;;4.67;100.00;98609.81;4999403;28;20077;-85
2022/01/09 07:25:48;;;;;;;24.65;3.88;;;6.50;99.90;;;4.62;100.00;98628.41;4990779;28;20134;-84
2022/01/09 07:28:15;;;;;;;23.42;4.30;;;6.50;99.90;;;4.59;100.00;98632.31;4998435;28;20132;-84
2022/01/09 07:30:43;;;;;;;19.30;4.30;;;6.50;99.90;;;4.58;100.00;98637.91;5010106;28;20125;-85
2022/01/09 07:33:11;;;;;;;25.75;4.35;;;6.50;99.90;;;4.54;100.00;98642.84;4991405;28;20052;-85
2022/01/09 07:35:39;;;;;;;20.63;3.67;;;6.60;99.90;;;4.50;100.00;98646.94;5010209;28;20144;-85
2022/01/09 07:38:06;;;;;;;24.75;3.67;;;6.50;99.90;;;4.49;100.00;98653.34;5009021;28;20046;-87
2022/01/09 07:40:34;;;;;;;17.02;4.00;;;6.60;99.90;;;4.44;100.00;98663.88;4991967;28;20502;-86
2022/01/09 07:43:01;;;;;;;22.15;3.60;;;6.60;99.90;;;4.51;100.00;98659.38;5004505;28;20039;-88
2022/01/09 07:45:29;;;;;;;14.00;3.40;;;6.50;99.90;;;4.52;100.00;98668.31;4972855;28;20042;-87
2022/01/09 07:48:00;;;;;;;19.20;3.58;;;6.50;99.90;;;4.55;100.00;98676.84;5004004;28;20050;-92
2022/01/09 07:50:29;;;;;;;23.63;4.35;;;6.50;99.90;;;4.53;100.00;98676.19;5009152;28;20042;-92
2022/01/09 07:52:57;;;;;;;25.65;3.58;;;6.50;99.90;;;4.47;100.00;98685.88;5009748;28;20592;-90
2022/01/09 07:55:24;;;;;;;19.83;3.47;;;6.60;99.90;;;4.39;100.00;98691.38;4993751;28;20065;-91
2022/01/09 07:57:54;;;;;;;22.20;3.40;;;6.50;99.90;;;4.36;100.00;98694.47;4992934;28;20073;-90
2022/01/09 08:00:22;;;;;;;17.73;3.97;;;6.50;99.90;;;4.47;100.00;98701.19;4994951;28;20045;-95
2022/01/09 08:02:51;;;;;;;18.63;4.03;;;6.50;99.90;;;4.44;100.00;98706.97;4994905;28;20077;-93
2022/01/09 08:05:18;;;;;;;20.02;4.15;;;6.50;99.90;;;4.45;100.00;98709.44;4976253;28;20099;-93
2022/01/09 08:07:49;;;;;;;23.02;4.03;;;6.50;99.90;;;4.49;100.00;98715.28;4976096;28;20108;-91
2022/01/09 08:10:17;;;;;;;21.17;3.97;;;6.40;99.90;;;4.49;100.00;98720.69;4988909;28;20058;-91
2022/01/09 08:12:46;;;;;;;19.08;3.80;;;6.60;99.90;;;4.48;100.00;98719.03;4992683;28;20662;-91
2022/01/09 08:15:13;;;;;;;22.65;3.92;;;6.50;99.90;;;4.46;100.00;98719.22;4993726;28;20045;-92
2022/01/09 08:17:45;;;;;;;21.25;4.07;;;6.50;99.90;;;4.44;100.00;98734.72;5009683;28;20049;-91
2022/01/09 08:20:17;;;;;;;26.55;4.43;;;6.50;99.90;;;4.42;100.00;98735.97;4989223;28;20042;-91
2022/01/09 08:22:44;;;;;;;22.50;3.75;;;6.50;99.90;;;4.36;100.00;98731.31;4977135;28;20038;-92
2022/01/09 08:25:19;;;;;;;22.10;3.80;;;6.50;99.90;;;4.40;100.00;98743.38;4974156;28;20046;-93
2022/01/09 08:27:48;;;;;;;22.27;3.83;;;6.50;99.90;;;4.40;100.00;98740.66;4981121;28;20042;-91
2022/01/09 08:30:18;;;;;;;18.70;3.92;;;6.50;99.90;;;4.48;100.00;98741.41;4994598;28;20506;-92
2022/01/09 08:32:46;;;;;;;23.92;4.00;;;6.50;99.90;;;4.51;100.00;98750.97;4988465;28;20161;-93
2022/01/09 08:35:16;;;;;;;18.95;3.88;;;6.40;99.90;;;4.48;100.00;98751.34;4975046;28;20050;-94
2022/01/09 08:37:44;;;;;;;19.15;4.13;;;6.40;99.90;;;4.44;100.00;98761.66;4992558;28;20658;-93
2022/01/09 08:40:19;;;;;;;22.58;4.03;;;6.50;99.90;;;4.40;100.00;98764.91;4999246;28;20136;-92
2022/01/09 08:42:48;;;;;;;18.30;3.40;;;6.40;99.90;;;4.36;100.00;98771.69;5000394;28;20073;-92
2022/01/09 08:45:16;;;;;;;21.80;3.65;;;6.50;99.90;;;4.39;100.00;98768.63;4972009;28;20056;-91
2022/01/09 08:47:44;;;;;;;19.33;3.85;;;6.50;99.90;;;4.37;100.00;98765.31;4977165;28;20042;-90
2022/01/09 08:50:14;;;;;;;18.20;3.67;;;6.40;99.90;;;4.40;100.00;98773.00;5001667;23;20062;-88
2022/01/09 08:52:45;;;;;;;13.45;3.15;;;6.40;99.90;;;4.45;100.00;98779.47;4963791;28;20102;-89
2022/01/09 08:55:19;;;;;;;20.70;3.60;;;6.40;99.90;;;4.47;100.00;98776.59;4964013;28;20066;-87
2022/01/09 08:57:47;;;;;;;23.40;3.60;;;6.40;99.90;;;4.37;100.00;98776.06;4964251;28;20051;-88
2022/01/09 09:00:16;;;;;;;19.13;3.50;;;6.40;99.90;;;4.28;100.00;98789.66;4948143;28;20059;-90
2022/01/09 09:02:51;;;;;;;24.23;4.07;;;6.50;99.90;;;4.28;100.00;98795.03;4963881;28;20051;-89
2022/01/09 09:05:21;;;;;;;18.65;4.05;;;6.40;99.90;;;4.34;100.00;98806.06;4963958;28;20047;-89
2022/01/09 09:07:49;;;;;;;14.60;3.70;;;6.40;99.90;;;4.41;100.00;98812.38;4947881;28;20059;-84
2022/01/09 09:10:20;;;;;;;16.98;3.83;;;6.40;99.90;;;4.42;100.00;98814.88;4947562;29;20066;-85
2022/01/09 09:12:48;;;;;;;21.23;4.32;;;6.40;99.90;;;4.33;100.00;98807.94;4963154;28;20051;-84
2022/01/09 09:15:15;;;;;;;15.82;3.70;;;6.40;99.90;;;4.42;100.00;98825.66;4947382;29;20514;-84
2022/01/09 09:17:46;;;;;;;18.02;3.78;;;6.50;99.90;;;4.46;100.00;98821.56;4963399;28;20110;-87
2022/01/09 09:20:14;;;;;;;21.98;4.53;;;6.50;99.90;;;4.48;100.00;98824.91;4949388;28;20415;-85
2022/01/09 09:22:41;;;;;;;19.90;4.15;;;6.40;99.90;;;4.55;100.00;98838.47;4948700;28;20043;-85
2022/01/09 09:25:12;;;;;;;15.07;3.60;;;6.50;99.90;;;4.48;100.00;98842.94;4963412;28;20463;-85
2022/01/09 09:27:41;;;;;;;14.10;4.40;;;6.50;99.90;;;4.53;100.00;98851.28;4963666;28;20047;-85
2022/01/09 09:30:10;;;;;;;24.83;5.90;;;6.50;99.90;;;4.52;100.00;98843.41;4963529;28;20469;-85
2022/01/09 09:32:40;;;;;;;25.20;5.13;;;6.50;99.90;;;4.59;100.00;98853.25;4962775;28;20054;-85
2022/01/09 09:35:11;;;;;;;21.23;4.43;;;6.60;99.90;;;4.62;100.00;98850.16;4963414;28;20447;-85
2022/01/09 09:37:41;;;;;;;18.15;4.85;;;6.60;99.90;;;4.66;100.00;98856.88;4948604;28;20047;-84
2022/01/09 09:40:10;;;;;;;20.83;4.78;;;6.60;99.90;;;4.59;100.00;98869.41;4947232;28;20054;-84
2022/01/09 09:42:38;;;;;;;25.00;5.13;;;6.60;99.90;;;4.54;100.00;98862.91;4948218;28;20577;-84
2022/01/09 09:45:10;;;;;;;16.58;5.38;;;6.60;99.90;;;4.56;100.00;98871.63;4963572;28;20051;-85
2022/01/09 09:47:42;;;;;;;22.38;4.90;;;6.60;99.90;;;4.54;100.00;98860.22;4952262;28;20039;-85
2022/01/09 09:50:14;;;;;;;15.07;4.70;;;6.60;99.90;;;4.61;100.00;98867.38;4952416;29;20489;-85
2022/01/09 09:52:42;;;;;;;17.95;4.75;;;6.60;99.90;;;4.54;100.00;98877.19;4950480;29;20109;-85
2022/01/09 09:55:10;;;;;;;18.35;4.57;;;6.60;99.90;;;4.53;100.00;98875.53;4966881;28;20507;-85
2022/01/09 09:57:38;;;;;;;22.38;5.20;;;6.60;99.90;;;4.54;100.00;98884.47;4952354;28;20043;-85
2022/01/09 10:00:12;;;;;;;17.83;5.03;;;6.60;99.90;;;4.63;100.00;98883.34;4952302;28;20266;-85
2022/01/09 10:02:46;;;;;;;17.70;3.65;;;6.60;99.90;;;4.72;100.00;98884.06;4947753;29;20048;-85
2022/01/09 10:05:16;;;;;;;15.80;4.32;;;6.60;99.90;;;4.78;100.00;98891.41;4934648;29;20054;-85
2022/01/09 10:07:44;;;;;;;19.23;5.47;;;6.60;99.90;;;4.73;100.00;98891.97;4947398;29;20054;-86
2022/01/09 10:10:17;;;;;;;23.27;5.38;;;6.70;99.90;;;4.78;100.00;98896.78;4947617;28;20055;-85
2022/01/09 10:12:47;;;;;;;24.15;7.03;;;6.70;99.90;;;4.79;100.00;98901.16;4947055;28;20526;-85
2022/01/09 10:15:21;;;;;;;19.75;6.90;;;6.70;99.90;;;4.81;100.00;98909.91;4946954;28;20550;-85
2022/01/09 10:17:50;;;;;;;18.02;6.45;;;6.70;99.90;;;4.74;100.00;98900.88;4932788;29;20114;-85
2022/01/09 10:20:21;;;;;;;18.98;7.05;;;6.70;99.90;;;4.81;100.00;98907.19;4933099;29;20047;-84
2022/01/09 10:22:51;;;;;;;23.80;7.85;;;6.70;99.90;;;4.84;100.00;98913.06;4947406;28;20090;-84
2022/01/09 10:25:41;;;;;;;17.80;6.45;;;6.80;99.90;;;4.90;100.00;98920.38;4933311;29;20044;-84
2022/01/09 10:28:17;;;;;;;22.58;6.20;;;6.80;99.90;;;4.93;100.00;98916.50;4947663;29;20047;-86
2022/01/09 10:30:50;;;;;;;18.65;5.90;;;6.80;99.90;;;4.93;100.00;98921.91;4947835;29;20443;-86